首页
METAR-TAF:

METAR-TAF

机场 :

Marshalltown Municipal Airport

Marshalltown, 艾奥瓦州, 美国

纬度: 42-06-38N, 经度: 092-54-58W, 海拔: 296米

当前天气观测

该预报发布于45分钟前的03:53 UTC
风速21节,风向西转西南,有时为36节阵风
温度 7°C
湿度 93%
气压 995 hPa
能見度: 16.1公里
少量云层高于1600英尺
多云层高于2200英尺
阴天层高于2600英尺
小雨

METAR: KMIW 220353Z AUTO 25021G36KT 10SM -RA FEW016 BKN022 OVC026 07/06 A2939 RMK AO2 PK WND 23036/0349 SLP955 P0002 T00720061

时间: 23:38 (04:38 UTC)


TAF: 丢失

超过4000个机场的气象观测和天气预报(METAR&TAF报告)。

可查询的气象台以黄色和红色小点在地图上表示。

将鼠标移到小点上方,可查看气象台名称。

然后点击查看天气观测和预报。

如需切换地图:点击带黑十字的绿色按钮放大地图;点击带横线的绿色按钮缩小地图;或者点击绿色箭头查看邻近地区的地图。


METAR-TAF: